• Join FlightAware (Why Join?)
  • Login
  • US Flag 
03:11AM EDT


 

Airport Tracker/Info


-or-


 

Live Flight TrackerFlight Track Log ✈ UAL4407 ✈ 22-Apr-2013 ✈ KMHT - KEWR

Flight Track Log - Related Links

Times and Time Zones

All times are in EDT time to prevent confusion due to time zone crossing. See the UAL4407 flight status page for this flight to view local times or setup timezone preferences in your user account.

Time Position Orientation Groundspeed Altitude Reporting Facility
EDT Latitude Longitude Course Direction KTS MPH feet Rate Location/Type
06:16AM 42.9500 -71.4167 280° West 160 184 900  Level KA90
06:18AM 43.0250 -71.4064 North 211 243 4,800 2,580 Climbing Boston Center
06:19AM 42.9578 -71.7124 280° West  Level FlightAware Approximate
06:19AM 43.0903 -71.4592 329° Northwest 237 273 7,700  Level Boston Center
06:20AM 42.9675 -71.8070 280° West  Level FlightAware Approximate
06:20AM 43.1117 -71.5500 288° West 242 278 10,100  Level Boston Center
06:21AM 42.9794 -71.9014 280° West  Level FlightAware Approximate
06:21AM 43.1356 -71.6775 284° West 300 345 11,800  Level Boston Center
06:22AM 43.1197 -71.7944 260° West 331 381 14,000 2,340 Climbing Boston Center
06:23AM 43.0953 -71.9369 257° West 343 395 16,500 2,100 Climbing Boston Center
06:24AM 43.0769 -72.0478 257° West 348 400 18,200 1,200 Climbing Boston Center
06:25AM 43.0503 -72.1958 256° West 354 407 19,000 960 Climbing Boston Center
06:26AM 43.0339 -72.3122 259° West 359 413 20,200 1,200 Climbing Boston Center
06:27AM 43.0131 -72.4486 258° West 359 413 21,500 900 Climbing Boston Center
06:28AM 42.9839 -72.5989 255° West 377 434 22,000 240 Climbing Boston Center
06:29AM 42.9439 -72.7633 252° West 411 473 22,000  Level Boston Center
06:30AM 42.9164 -72.9164 256° West 416 479 22,000  Level Boston Center
06:31AM 42.8947 -73.0522 258° West 416 479 22,000 -300 Level Boston Center
06:32AM 42.8647 -73.2022 255° West 411 473 21,400 -840 Descending Boston Center
06:33AM 42.8364 -73.3547 256° West 411 473 20,400 -1,020 Descending Boston Center
06:34AM 42.8081 -73.4986 255° West 411 473 19,400 -1,020 Descending Boston Center
06:35AM 42.7756 -73.6367 252° West 401 461 18,400 -780 Descending Boston Center
06:36AM 42.6889 -73.7394 221° Southwest 378 435 17,900 -720 Descending Boston Center
06:37AM 42.5986 -73.7883 202° Southwest 381 438 17,000 -900 Descending Boston Center
06:38AM 42.4936 -73.8536 205° Southwest 381 438 16,100 -540 Descending Boston Center
06:39AM 42.4075 -73.9050 204° Southwest 376 433 16,000 -60 Descending Boston Center
06:40AM 42.3047 -73.9672 204° Southwest 381 438 16,000  Level Boston Center
06:41AM 42.2186 -74.0156 203° Southwest 376 433 16,000  Level Boston Center
06:42AM 42.1156 -74.0803 205° Southwest 376 433 16,000 -360 Level Boston Center
06:43AM 42.0169 -74.1278 200° South 382 440 15,300 -840 Descending Boston Center
06:44AM 41.9267 -74.1700 199° South 377 434 14,400 -1,020 Descending Boston Center
06:45AM 41.8197 -74.2147 197° South 371 427 13,300 -1,020 Descending Boston Center
06:46AM 41.7314 -74.2539 198° South 366 421 12,400 -1,140 Descending Boston Center
06:47AM 41.6306 -74.2983 198° South 366 421 11,100 -1,260 Descending Boston Center
06:48AM 41.5572 -74.3294 198° South 333 383 9,900 -1,020 Descending Boston Center
06:50AM 41.3594 -74.4007 198° South  Level FlightAware Approximate
06:51AM 41.3333 -74.4167 198° South 263 303 7,100  Level New York TRACON
06:52AM 41.2667 -74.4500 201° Southwest 266 306 7,100  Level New York TRACON
06:53AM 41.2000 -74.4833 201° Southwest 263 303 7,100 -60 Level New York TRACON
06:54AM 41.1333 -74.5167 201° Southwest 271 312 7,000 -360 Descending New York TRACON
06:55AM 41.0667 -74.5333 191° South 254 292 6,400 -840 Descending New York TRACON
06:56AM 40.9833 -74.5333 180° South 251 289 5,300 -660 Descending New York TRACON
06:57AM 40.9167 -74.5500 191° South 257 296 5,100 -120 Descending New York TRACON
06:57AM 40.8667 -74.5500 180° South 261 300 5,100  Level New York TRACON
06:58AM 40.7833 -74.5167 163° South 256 295 5,100  Level New York TRACON
06:59AM 40.7167 -74.4833 159° South 257 296 5,100  Level New York TRACON
07:00AM 40.6500 -74.4667 169° South 255 293 5,100 -360 Level New York TRACON
07:01AM 40.6000 -74.4333 153° Southeast 252 290 4,500 -540 Descending New York TRACON
07:02AM 40.5500 -74.3667 135° Southeast 228 262 4,100 -300 Descending New York TRACON
07:03AM 40.5333 -74.3000 108° East 219 252 4,000 -180 Descending New York TRACON